createdAt,value
2019-02-27T00:00:29.566Z,7.43
2019-02-27T00:02:58.817Z,6.70
2019-02-27T00:05:27.982Z,6.77
2019-02-27T00:07:57.124Z,6.53
2019-02-27T00:10:26.572Z,6.07
2019-02-27T00:12:55.766Z,6.57
2019-02-27T00:15:24.936Z,7.67
2019-02-27T00:17:54.174Z,7.07
2019-02-27T00:20:23.331Z,11.70
2019-02-27T00:22:52.464Z,7.10
2019-02-27T00:25:21.654Z,6.17
2019-02-27T00:27:50.806Z,6.67
2019-02-27T00:30:19.996Z,7.80
2019-02-27T00:32:51.266Z,5.83
2019-02-27T00:35:20.064Z,5.83
2019-02-27T00:37:51.825Z,6.17
2019-02-27T00:40:20.126Z,7.33
2019-02-27T00:42:49.286Z,9.90
2019-02-27T00:45:18.450Z,6.57
2019-02-27T00:47:47.607Z,7.63
2019-02-27T00:50:16.770Z,5.70
2019-02-27T00:52:45.939Z,6.03
2019-02-27T00:55:15.098Z,5.13
2019-02-27T00:57:44.219Z,8.57
2019-02-27T01:00:14.250Z,6.00
2019-02-27T01:02:43.378Z,6.87
2019-02-27T01:05:12.634Z,7.80
2019-02-27T01:07:41.779Z,7.23
2019-02-27T01:10:12.278Z,6.33
2019-02-27T01:12:41.816Z,7.73
2019-02-27T01:15:11.309Z,7.87
2019-02-27T01:17:40.652Z,7.17
2019-02-27T01:20:11.409Z,7.17
2019-02-27T01:22:40.818Z,6.43
2019-02-27T01:25:10.758Z,7.40
2019-02-27T01:27:39.929Z,8.00
2019-02-27T01:30:10.514Z,7.53
2019-02-27T01:32:39.765Z,6.33
2019-02-27T01:35:09.433Z,6.93
2019-02-27T01:37:38.580Z,6.60
2019-02-27T01:40:09.703Z,7.47
2019-02-27T01:42:38.874Z,9.87
2019-02-27T01:45:10.372Z,7.00
2019-02-27T01:47:39.526Z,8.70
2019-02-27T01:50:28.916Z,7.17
2019-02-27T01:52:58.124Z,7.50
2019-02-27T01:55:27.228Z,8.17
2019-02-27T01:57:56.372Z,8.10
2019-02-27T02:00:25.591Z,8.03
2019-02-27T02:02:54.835Z,8.13
2019-02-27T02:05:27.207Z,9.03
2019-02-27T02:07:56.231Z,7.20
2019-02-27T02:10:28.037Z,11.03
2019-02-27T02:13:27.309Z,7.83
2019-02-27T02:16:38.140Z,7.40
2019-02-27T02:19:42.451Z,7.27
2019-02-27T02:23:04.513Z,7.17
2019-02-27T02:25:53.597Z,7.33
2019-02-27T02:29:05.406Z,7.43
2019-02-27T02:32:07.259Z,7.67
2019-02-27T02:35:24.527Z,6.57
2019-02-27T02:38:14.746Z,7.63
2019-02-27T02:41:29.946Z,7.80
2019-02-27T02:44:43.452Z,8.93
2019-02-27T02:47:42.345Z,7.60
2019-02-27T02:50:43.611Z,7.30
2019-02-27T02:53:48.556Z,7.27
2019-02-27T02:57:09.954Z,7.63
2019-02-27T02:59:59.934Z,7.83
2019-02-27T03:02:35.647Z,8.63
2019-02-27T03:05:47.705Z,7.80
2019-02-27T03:08:54.966Z,7.57
2019-02-27T03:11:43.234Z,8.57
2019-02-27T03:14:35.253Z,7.23
2019-02-27T03:17:27.670Z,7.63
2019-02-27T03:20:30.500Z,7.27
2019-02-27T03:23:15.497Z,7.07
2019-02-27T03:26:16.779Z,7.60
2019-02-27T03:29:04.037Z,6.80
2019-02-27T03:32:23.411Z,7.23
2019-02-27T03:35:27.951Z,7.50
2019-02-27T03:38:02.390Z,7.43
2019-02-27T03:41:07.444Z,7.20
2019-02-27T03:44:24.916Z,6.63
2019-02-27T03:47:38.336Z,8.03
2019-02-27T03:50:30.437Z,6.63
2019-02-27T03:53:46.552Z,6.93
2019-02-27T03:57:10.702Z,7.03
2019-02-27T04:00:19.096Z,6.83
2019-02-27T04:03:37.444Z,9.30
2019-02-27T04:06:56.451Z,6.60
2019-02-27T04:09:24.694Z,7.07
2019-02-27T04:11:53.857Z,7.00
2019-02-27T04:14:30.272Z,6.77
2019-02-27T04:17:05.370Z,7.23
2019-02-27T04:19:30.260Z,7.83
2019-02-27T04:22:01.278Z,7.60
2019-02-27T04:24:30.268Z,7.03
2019-02-27T04:27:02.700Z,7.60
2019-02-27T04:29:31.840Z,8.00
2019-02-27T04:32:00.981Z,7.60
2019-02-27T04:34:32.981Z,6.67
2019-02-27T04:37:00.984Z,8.17
2019-02-27T04:39:30.119Z,6.67
2019-02-27T04:41:59.265Z,9.17
2019-02-27T04:44:28.365Z,7.43
2019-02-27T04:46:57.576Z,6.83
2019-02-27T04:49:26.755Z,6.43
2019-02-27T04:51:55.895Z,7.30
2019-02-27T04:54:25.134Z,7.40
2019-02-27T04:56:55.058Z,7.93
2019-02-27T04:59:25.180Z,7.40
2019-02-27T05:01:54.304Z,7.13
2019-02-27T05:04:23.495Z,8.80
2019-02-27T05:06:52.647Z,7.57
2019-02-27T05:09:21.758Z,10.10
2019-02-27T05:11:50.889Z,8.20
2019-02-27T05:14:20.074Z,7.70
2019-02-27T05:16:49.246Z,8.90
2019-02-27T05:19:18.351Z,6.67
2019-02-27T05:21:52.168Z,6.37
2019-02-27T05:24:18.393Z,6.70
2019-02-27T05:26:47.584Z,6.70
2019-02-27T05:29:16.694Z,6.50
2019-02-27T05:31:45.870Z,5.60
2019-02-27T05:34:14.999Z,7.40
2019-02-27T05:36:44.129Z,11.00
2019-02-27T05:39:14.905Z,6.73
2019-02-27T05:41:44.133Z,7.47
2019-02-27T05:44:13.231Z,7.30
2019-02-27T05:46:42.385Z,7.50
2019-02-27T05:49:11.508Z,8.20
2019-02-27T05:51:40.682Z,6.97
2019-02-27T05:54:09.839Z,6.13
2019-02-27T05:56:38.955Z,7.90
2019-02-27T05:59:08.224Z,6.93
2019-02-27T06:01:38.281Z,7.37
2019-02-27T06:04:08.068Z,7.10
2019-02-27T06:06:37.195Z,6.33
2019-02-27T06:09:09.939Z,6.90
2019-02-27T06:11:38.192Z,6.57
2019-02-27T06:14:07.339Z,6.20
2019-02-27T06:16:37.554Z,5.90
2019-02-27T06:19:07.331Z,8.23
2019-02-27T06:21:36.485Z,8.03
2019-02-27T06:24:05.595Z,7.23
2019-02-27T06:26:34.767Z,7.83
2019-02-27T06:29:03.919Z,8.97
2019-02-27T06:31:36.865Z,11.17
2019-02-27T06:34:03.995Z,8.43
2019-02-27T06:36:33.133Z,10.83
2019-02-27T06:39:02.327Z,8.73
2019-02-27T06:41:31.453Z,8.53
2019-02-27T06:44:01.492Z,11.40
2019-02-27T06:46:31.371Z,8.13
2019-02-27T06:49:00.511Z,8.53
2019-02-27T06:51:29.659Z,10.50
2019-02-27T06:53:58.864Z,9.00
2019-02-27T06:56:28.041Z,9.17
2019-02-27T06:58:57.217Z,10.30
2019-02-27T07:01:26.396Z,12.40
2019-02-27T07:03:55.600Z,9.03
2019-02-27T07:06:24.687Z,9.70
2019-02-27T07:08:53.831Z,12.10
2019-02-27T07:11:22.958Z,10.10
2019-02-27T07:13:52.098Z,9.47
2019-02-27T07:16:22.885Z,9.17
2019-02-27T07:18:52.069Z,18.53
2019-02-27T07:21:21.197Z,10.23
2019-02-27T07:23:50.396Z,7.87
2019-02-27T07:26:19.499Z,7.93
2019-02-27T07:28:48.647Z,8.60
2019-02-27T07:31:18.504Z,8.50
2019-02-27T07:33:47.747Z,20.10
2019-02-27T07:36:16.879Z,11.07
2019-02-27T07:38:46.016Z,9.00
2019-02-27T07:41:19.473Z,14.97
2019-02-27T07:43:45.983Z,11.03
2019-02-27T07:46:15.135Z,8.93
2019-02-27T07:48:44.241Z,9.67
2019-02-27T07:51:13.400Z,7.80
2019-02-27T07:53:42.550Z,8.73
2019-02-27T07:56:11.803Z,8.10
2019-02-27T07:58:40.979Z,10.43
2019-02-27T08:01:10.121Z,10.13
2019-02-27T08:03:39.317Z,8.47
2019-02-27T08:06:08.430Z,9.03
2019-02-27T08:08:37.538Z,8.27
2019-02-27T08:11:06.682Z,13.57
2019-02-27T08:13:35.837Z,10.03
2019-02-27T08:16:05.060Z,19.60
2019-02-27T08:18:37.678Z,10.63
2019-02-27T08:21:05.068Z,12.87
2019-02-27T08:23:34.223Z,9.20
2019-02-27T08:26:05.143Z,9.63
2019-02-27T08:28:34.231Z,13.53
2019-02-27T08:31:03.441Z,8.53
2019-02-27T08:33:32.581Z,10.23
2019-02-27T08:36:01.780Z,9.07
2019-02-27T08:38:30.934Z,9.43
2019-02-27T08:41:00.101Z,10.10
2019-02-27T08:43:30.513Z,11.70
2019-02-27T08:46:02.335Z,8.37
2019-02-27T08:48:30.738Z,9.70
2019-02-27T08:50:59.870Z,11.13
2019-02-27T08:53:29.051Z,9.07
2019-02-27T08:55:58.189Z,15.17
2019-02-27T08:58:29.658Z,9.00
2019-02-27T09:00:58.875Z,9.00
2019-02-27T09:03:28.009Z,10.93
2019-02-27T09:05:57.190Z,10.37
2019-02-27T09:08:26.335Z,11.30
2019-02-27T09:10:55.452Z,9.90
2019-02-27T09:13:24.578Z,10.30
2019-02-27T09:15:53.860Z,9.73
2019-02-27T09:18:23.304Z,9.43
2019-02-27T09:20:53.522Z,9.07
2019-02-27T09:23:23.260Z,8.50
2019-02-27T09:25:57.313Z,12.73
2019-02-27T09:28:23.434Z,12.13
2019-02-27T09:30:52.622Z,10.47
2019-02-27T09:33:21.734Z,8.83
2019-02-27T09:35:50.885Z,9.20
2019-02-27T09:38:24.079Z,9.57
2019-02-27T09:40:50.920Z,10.03
2019-02-27T09:43:20.065Z,9.37
2019-02-27T09:45:49.208Z,9.67
2019-02-27T09:48:19.325Z,8.93
2019-02-27T09:50:49.134Z,10.47
2019-02-27T09:53:18.489Z,10.43
2019-02-27T09:55:47.661Z,8.93
2019-02-27T09:58:16.888Z,11.37
2019-02-27T10:00:48.122Z,9.07
2019-02-27T10:03:20.498Z,8.63
2019-02-27T10:05:48.311Z,8.83
2019-02-27T10:08:17.700Z,9.83
2019-02-27T10:10:47.043Z,8.87
2019-02-27T10:13:16.178Z,9.10
2019-02-27T10:15:45.347Z,10.23
2019-02-27T10:18:18.254Z,8.20
2019-02-27T10:20:45.376Z,7.47
2019-02-27T10:23:14.497Z,7.77
2019-02-27T10:25:44.209Z,7.87
2019-02-27T10:28:13.549Z,8.90
2019-02-27T10:30:42.737Z,9.00
2019-02-27T10:33:11.963Z,7.23
2019-02-27T10:35:41.062Z,7.97
2019-02-27T10:38:10.244Z,6.70
2019-02-27T10:40:39.464Z,7.17
2019-02-27T10:43:08.565Z,7.37
2019-02-27T10:45:37.727Z,6.93
2019-02-27T10:48:06.860Z,10.50
2019-02-27T10:50:36.206Z,7.10
2019-02-27T10:53:05.489Z,10.37
2019-02-27T10:55:34.632Z,7.17
2019-02-27T10:58:03.781Z,7.07
2019-02-27T11:00:33.043Z,5.77
2019-02-27T11:03:02.207Z,6.67
2019-02-27T11:05:32.150Z,6.33
2019-02-27T11:08:00.943Z,5.97
2019-02-27T11:10:30.089Z,4.90
2019-02-27T11:12:59.351Z,5.70
2019-02-27T11:15:28.502Z,6.30
2019-02-27T11:17:57.727Z,6.27
2019-02-27T11:20:26.896Z,7.30
2019-02-27T11:22:56.026Z,5.50
2019-02-27T11:25:25.498Z,5.80
2019-02-27T11:27:54.761Z,9.90
2019-02-27T11:30:29.359Z,7.13
2019-02-27T11:32:58.586Z,5.03
2019-02-27T11:35:27.715Z,5.83
2019-02-27T11:37:56.861Z,8.03
2019-02-27T11:40:26.959Z,5.90
2019-02-27T11:42:56.211Z,5.83
2019-02-27T11:45:25.348Z,5.50
2019-02-27T11:47:54.499Z,5.63
2019-02-27T11:50:23.616Z,4.90
2019-02-27T11:52:52.824Z,5.63
2019-02-27T11:55:24.384Z,5.07
2019-02-27T11:57:53.287Z,4.43
2019-02-27T12:00:25.976Z,4.33
2019-02-27T12:02:55.141Z,4.30
2019-02-27T12:05:24.302Z,4.77
2019-02-27T12:07:53.451Z,5.70
2019-02-27T12:10:23.883Z,3.73
2019-02-27T12:12:53.494Z,3.90
2019-02-27T12:15:22.669Z,4.13
2019-02-27T12:17:51.791Z,4.37
2019-02-27T12:20:21.917Z,3.63
2019-02-27T12:22:51.023Z,3.50
2019-02-27T12:25:20.969Z,4.30
2019-02-27T12:27:53.722Z,3.80
2019-02-27T12:30:23.342Z,8.47
2019-02-27T12:32:55.783Z,3.20
2019-02-27T12:35:25.114Z,3.37
2019-02-27T12:37:54.260Z,4.23
2019-02-27T12:40:25.107Z,3.80
2019-02-27T12:42:54.594Z,3.77
2019-02-27T12:45:25.709Z,2.77
2019-02-27T12:47:55.471Z,3.23
2019-02-27T12:50:26.887Z,3.60
2019-02-27T12:52:56.185Z,4.70
2019-02-27T12:55:25.412Z,3.40
2019-02-27T12:57:54.532Z,3.53
2019-02-27T13:00:26.226Z,3.63
2019-02-27T13:02:55.432Z,7.23
2019-02-27T13:05:27.355Z,7.10
2019-02-27T13:07:55.395Z,10.20
2019-02-27T13:10:24.698Z,7.20
2019-02-27T13:12:54.022Z,4.80
2019-02-27T13:15:23.716Z,3.63
2019-02-27T13:17:56.165Z,5.10
2019-02-27T13:20:25.290Z,4.00
2019-02-27T13:22:54.429Z,3.47
2019-02-27T13:25:24.277Z,6.33
2019-02-27T13:27:54.216Z,3.27
2019-02-27T13:30:23.672Z,5.33
2019-02-27T13:32:52.914Z,2.53
2019-02-27T13:35:23.155Z,2.20
2019-02-27T13:37:53.355Z,2.80
2019-02-27T13:40:22.515Z,2.43
2019-02-27T13:42:53.839Z,4.33
2019-02-27T13:45:24.741Z,2.60
2019-02-27T13:47:53.928Z,2.20
2019-02-27T13:50:26.511Z,1.60
2019-02-27T13:52:54.413Z,1.63
2019-02-27T13:55:23.702Z,2.47
2019-02-27T13:57:52.890Z,4.07
2019-02-27T14:00:25.740Z,7.37
2019-02-27T14:02:55.494Z,4.23
2019-02-27T14:05:24.629Z,3.63
2019-02-27T14:07:57.288Z,1.60
2019-02-27T14:10:27.436Z,1.83
2019-02-27T14:12:56.815Z,2.10
2019-02-27T14:15:27.272Z,2.93
2019-02-27T14:17:56.862Z,2.90
2019-02-27T14:20:26.997Z,5.00
2019-02-27T14:22:57.097Z,2.20
2019-02-27T14:25:31.238Z,3.40
2019-02-27T14:27:57.820Z,1.70
2019-02-27T14:30:35.698Z,1.97
2019-02-27T14:33:04.085Z,4.90
2019-02-27T14:35:36.338Z,2.53
2019-02-27T14:38:04.513Z,2.00
2019-02-27T14:40:37.787Z,2.40
2019-02-27T14:43:05.267Z,1.40
2019-02-27T14:45:39.577Z,4.53
2019-02-27T14:48:05.271Z,4.20
2019-02-27T14:50:34.792Z,1.97
2019-02-27T14:53:04.275Z,8.03
2019-02-27T14:55:36.061Z,6.80
2019-02-27T14:58:04.342Z,3.00
2019-02-27T15:00:33.646Z,3.47
2019-02-27T15:03:02.848Z,2.00
2019-02-27T15:05:32.368Z,1.60
2019-02-27T15:08:01.527Z,2.77
2019-02-27T15:10:30.691Z,1.40
2019-02-27T15:12:59.833Z,1.40
2019-02-27T15:15:29.754Z,1.60
2019-02-27T15:17:59.071Z,2.10
2019-02-27T15:20:28.306Z,2.50
2019-02-27T15:22:57.440Z,2.27
2019-02-27T15:25:27.627Z,2.30
2019-02-27T15:27:59.634Z,3.43
2019-02-27T15:30:28.737Z,1.50
2019-02-27T15:32:57.925Z,1.33
2019-02-27T15:35:28.389Z,1.80
2019-02-27T15:37:57.708Z,2.27
2019-02-27T15:40:29.548Z,4.83
2019-02-27T15:42:57.954Z,1.57
2019-02-27T15:45:27.898Z,2.90
2019-02-27T15:47:57.010Z,1.70
2019-02-27T15:50:26.230Z,2.30
2019-02-27T15:52:55.370Z,2.07
2019-02-27T15:55:24.527Z,2.53
2019-02-27T15:57:54.174Z,5.73
2019-02-27T16:00:23.843Z,2.70
2019-02-27T16:02:53.072Z,2.07
2019-02-27T16:05:22.760Z,1.80
2019-02-27T16:07:52.108Z,1.67
2019-02-27T16:10:22.156Z,1.43
2019-02-27T16:12:51.367Z,1.50
2019-02-27T16:15:20.991Z,2.80
2019-02-27T16:17:50.112Z,2.30
2019-02-27T16:20:19.779Z,6.57
2019-02-27T16:22:48.944Z,4.60
2019-02-27T16:25:20.007Z,2.63
2019-02-27T16:27:49.323Z,2.40
2019-02-27T16:30:20.661Z,2.77
2019-02-27T16:32:50.001Z,2.10
2019-02-27T16:35:19.368Z,3.83
2019-02-27T16:37:48.537Z,5.50
2019-02-27T16:40:18.944Z,6.07
2019-02-27T16:42:48.371Z,5.57
2019-02-27T16:45:19.406Z,5.93
2019-02-27T16:47:48.628Z,4.00
2019-02-27T16:50:23.923Z,3.03
2019-02-27T16:52:50.727Z,2.83
2019-02-27T16:55:21.022Z,2.50
2019-02-27T16:57:50.226Z,2.00
2019-02-27T17:00:21.861Z,1.43
2019-02-27T17:02:51.030Z,3.77
2019-02-27T17:05:20.253Z,1.20
2019-02-27T17:08:04.164Z,1.37
2019-02-27T17:10:33.438Z,1.10
2019-02-27T17:13:02.747Z,1.10
2019-02-27T17:15:36.010Z,1.07
2019-02-27T17:18:09.468Z,2.17
2019-02-27T17:20:38.742Z,1.70
2019-02-27T17:23:10.940Z,2.17
2019-02-27T17:25:40.423Z,3.13
2019-02-27T17:28:09.520Z,2.70
2019-02-27T17:30:38.644Z,2.27
2019-02-27T17:33:07.799Z,4.47
2019-02-27T17:35:36.956Z,1.20
2019-02-27T17:38:06.259Z,1.53
2019-02-27T17:40:37.585Z,1.30
2019-02-27T17:43:06.915Z,0.67
2019-02-27T17:45:36.352Z,1.73
2019-02-27T17:48:05.687Z,3.10
2019-02-27T17:50:34.970Z,2.17
2019-02-27T17:53:04.107Z,2.50
2019-02-27T17:55:33.267Z,2.07
2019-02-27T17:58:02.528Z,4.20
2019-02-27T18:00:36.371Z,4.50
2019-02-27T18:03:05.959Z,7.30
2019-02-27T18:05:35.326Z,8.37
2019-02-27T18:08:04.661Z,10.03
2019-02-27T18:10:37.147Z,5.83
2019-02-27T18:13:04.697Z,3.77
2019-02-27T18:15:33.950Z,3.67
2019-02-27T18:18:03.104Z,3.57
2019-02-27T18:20:32.455Z,4.33
2019-02-27T18:23:01.665Z,3.57
2019-02-27T18:25:30.853Z,4.70
2019-02-27T18:28:00.016Z,5.00
2019-02-27T18:30:29.371Z,4.10
2019-02-27T18:32:58.597Z,3.90
2019-02-27T18:35:29.585Z,4.40
2019-02-27T18:37:58.694Z,4.53
2019-02-27T18:40:27.968Z,3.50
2019-02-27T18:42:57.226Z,3.23
2019-02-27T18:45:26.491Z,2.37
2019-02-27T18:47:55.621Z,3.03
2019-02-27T18:50:25.644Z,2.60
2019-02-27T18:52:55.117Z,2.80
2019-02-27T18:55:29.568Z,3.17
2019-02-27T18:57:56.790Z,2.20
2019-02-27T19:00:25.960Z,2.00
2019-02-27T19:02:55.463Z,2.80
2019-02-27T19:05:24.617Z,5.13
2019-02-27T19:07:55.055Z,2.50
2019-02-27T19:10:26.968Z,2.73
2019-02-27T19:12:56.205Z,3.97
2019-02-27T19:15:25.579Z,3.87
2019-02-27T19:17:55.041Z,3.83
2019-02-27T19:20:26.495Z,4.43
2019-02-27T19:22:55.640Z,4.30
2019-02-27T19:25:24.906Z,9.93
2019-02-27T19:27:54.046Z,7.17
2019-02-27T19:30:23.701Z,8.93
2019-02-27T19:32:57.883Z,11.43
2019-02-27T19:35:23.890Z,6.43
2019-02-27T19:37:53.231Z,5.43
2019-02-27T19:40:23.627Z,4.70
2019-02-27T19:42:55.056Z,7.10
2019-02-27T19:45:24.472Z,8.20
2019-02-27T19:47:55.708Z,5.80
2019-02-27T19:50:24.701Z,5.27
2019-02-27T19:52:54.181Z,5.13
2019-02-27T19:55:26.488Z,6.60
2019-02-27T19:57:54.262Z,4.50
2019-02-27T20:00:25.409Z,6.60
2019-02-27T20:02:56.094Z,3.70
2019-02-27T20:05:26.311Z,4.63
2019-02-27T20:07:58.224Z,5.13
2019-02-27T20:10:30.975Z,7.77
2019-02-27T20:12:58.706Z,7.63
2019-02-27T20:15:28.624Z,7.67
2019-02-27T20:18:08.908Z,6.13
2019-02-27T20:20:41.038Z,5.37
2019-02-27T20:23:10.152Z,4.10
2019-02-27T20:25:43.181Z,4.40
2019-02-27T20:28:10.294Z,5.97
2019-02-27T20:30:39.854Z,6.77
2019-02-27T20:33:09.143Z,5.37
2019-02-27T20:35:39.166Z,8.13
2019-02-27T20:38:08.370Z,5.10
2019-02-27T20:40:38.223Z,4.63
2019-02-27T20:43:07.459Z,4.43
2019-02-27T20:45:36.591Z,6.37
2019-02-27T20:48:05.831Z,5.07
2019-02-27T20:50:37.628Z,4.70
2019-02-27T20:53:07.475Z,4.20
2019-02-27T20:55:36.625Z,4.03
2019-02-27T20:58:06.430Z,4.43
2019-02-27T21:00:37.139Z,3.83
2019-02-27T21:03:06.706Z,3.30
2019-02-27T21:05:36.153Z,3.37
2019-02-27T21:08:05.381Z,4.07
2019-02-27T21:10:34.631Z,2.77
2019-02-27T21:13:03.853Z,3.83
2019-02-27T21:15:33.542Z,3.97
2019-02-27T21:18:02.796Z,3.10
2019-02-27T21:20:33.241Z,4.70
2019-02-27T21:23:02.632Z,3.07
2019-02-27T21:25:31.944Z,4.67
2019-02-27T21:28:04.085Z,4.17
2019-02-27T21:30:32.283Z,4.13
2019-02-27T21:33:01.421Z,3.50
2019-02-27T21:35:30.564Z,3.50
2019-02-27T21:37:59.721Z,3.17
2019-02-27T21:40:28.887Z,4.30
2019-02-27T21:42:58.040Z,3.70
2019-02-27T21:45:27.221Z,4.53
2019-02-27T21:47:56.520Z,5.30
2019-02-27T21:50:25.768Z,4.77
2019-02-27T21:52:55.831Z,4.80
2019-02-27T21:55:25.351Z,4.60
2019-02-27T21:57:58.079Z,4.97
2019-02-27T22:00:26.118Z,5.63
2019-02-27T22:02:55.359Z,5.67
2019-02-27T22:05:24.584Z,4.97
2019-02-27T22:07:53.718Z,8.73
2019-02-27T22:10:22.896Z,4.33
2019-02-27T22:12:52.036Z,4.77
2019-02-27T22:15:26.040Z,6.13
2019-02-27T22:17:55.208Z,4.73
2019-02-27T22:20:25.907Z,7.57
2019-02-27T22:22:55.200Z,6.20
2019-02-27T22:25:27.236Z,6.40
2019-02-27T22:27:55.236Z,6.27
2019-02-27T22:30:24.515Z,7.33
2019-02-27T22:32:53.692Z,5.97
2019-02-27T22:35:22.866Z,5.57
2019-02-27T22:37:52.811Z,5.07
2019-02-27T22:40:22.257Z,7.80
2019-02-27T22:42:51.432Z,8.23
2019-02-27T22:45:20.788Z,5.40
2019-02-27T22:47:50.077Z,5.70
2019-02-27T22:50:19.232Z,4.93
2019-02-27T22:52:54.046Z,5.50
2019-02-27T22:55:19.716Z,4.60
2019-02-27T22:57:48.851Z,5.53
2019-02-27T23:01:05.689Z,6.50
2019-02-27T23:03:41.274Z,5.83
2019-02-27T23:06:12.132Z,6.23
2019-02-27T23:08:41.862Z,6.50
2019-02-27T23:11:11.040Z,6.27
2019-02-27T23:13:40.799Z,8.17
2019-02-27T23:16:10.023Z,8.37
2019-02-27T23:18:40.283Z,13.20
2019-02-27T23:21:10.110Z,36.30
2019-02-27T23:23:39.438Z,41.60
2019-02-27T23:26:08.639Z,26.73
2019-02-27T23:28:37.779Z,23.73
2019-02-27T23:31:06.931Z,13.67
2019-02-27T23:33:36.729Z,12.23
2019-02-27T23:36:06.209Z,9.87
2019-02-27T23:38:35.873Z,8.87
2019-02-27T23:41:05.515Z,8.87
2019-02-27T23:43:35.134Z,8.30
2019-02-27T23:46:05.011Z,5.93
2019-02-27T23:48:36.128Z,8.87
2019-02-27T23:51:05.599Z,16.53
2019-02-27T23:53:34.755Z,14.80
2019-02-27T23:56:05.266Z,14.43
2019-02-27T23:58:34.447Z,10.43
